createdAt,value
2018-04-08T00:01:11.257Z,10.70
2018-04-08T00:03:38.587Z,11.17
2018-04-08T00:06:06.739Z,9.90
2018-04-08T00:08:35.035Z,10.20
2018-04-08T00:11:02.424Z,10.13
2018-04-08T00:13:30.696Z,10.70
2018-04-08T00:15:58.804Z,10.30
2018-04-08T00:18:26.240Z,9.93
2018-04-08T00:20:54.492Z,10.27
2018-04-08T00:23:21.864Z,8.60
2018-04-08T00:25:49.224Z,9.50
2018-04-08T00:28:17.320Z,10.37
2018-04-08T00:30:44.820Z,10.37
2018-04-08T00:33:13.027Z,9.70
2018-04-08T00:35:40.517Z,9.63
2018-04-08T00:38:07.868Z,9.43
2018-04-08T00:40:36.342Z,7.93
2018-04-08T00:43:04.615Z,9.13
2018-04-08T00:45:32.891Z,9.20
2018-04-08T00:48:01.176Z,9.13
2018-04-08T00:50:29.440Z,8.67
2018-04-08T00:52:56.791Z,9.73
2018-04-08T00:55:24.292Z,10.67
2018-04-08T00:57:51.492Z,11.50
2018-04-08T01:00:18.852Z,11.30
2018-04-08T01:02:46.799Z,9.83
2018-04-08T01:05:14.915Z,9.97
2018-04-08T01:07:42.147Z,8.77
2018-04-08T01:10:10.099Z,11.50
2018-04-08T01:12:37.512Z,10.17
2018-04-08T01:15:04.795Z,10.53
2018-04-08T01:17:32.719Z,10.97
2018-04-08T01:20:01.160Z,11.00
2018-04-08T01:22:28.500Z,10.63
2018-04-08T01:24:56.635Z,9.33
2018-04-08T01:27:24.036Z,10.23
2018-04-08T01:29:52.267Z,10.30
2018-04-08T01:32:19.696Z,9.43
2018-04-08T01:34:48.044Z,10.37
2018-04-08T01:37:15.414Z,9.40
2018-04-08T01:39:43.456Z,10.63
2018-04-08T01:42:10.791Z,11.37
2018-04-08T01:44:38.110Z,11.30
2018-04-08T01:47:06.359Z,10.03
2018-04-08T01:49:34.460Z,10.67
2018-04-08T01:52:01.882Z,10.17
2018-04-08T01:54:29.247Z,8.40
2018-04-08T01:56:56.877Z,7.77
2018-04-08T01:59:24.217Z,10.00
2018-04-08T02:01:51.584Z,10.50
2018-04-08T02:04:19.214Z,10.47
2018-04-08T02:06:47.336Z,11.87
2018-04-08T02:09:14.745Z,9.47
2018-04-08T02:11:42.112Z,10.80
2018-04-08T02:14:09.453Z,10.47
2018-04-08T02:16:37.038Z,9.87
2018-04-08T02:19:04.399Z,10.37
2018-04-08T02:21:31.728Z,11.00
2018-04-08T02:23:59.395Z,9.70
2018-04-08T02:26:26.762Z,9.80
2018-04-08T02:28:54.060Z,10.13
2018-04-08T02:31:21.392Z,10.03
2018-04-08T02:33:48.827Z,10.50
2018-04-08T02:36:16.917Z,9.03
2018-04-08T02:38:44.250Z,8.73
2018-04-08T02:41:11.608Z,8.47
2018-04-08T02:43:39.020Z,10.30
2018-04-08T02:46:07.161Z,9.53
2018-04-08T02:48:35.439Z,8.47
2018-04-08T02:51:03.788Z,7.80
2018-04-08T02:53:31.112Z,9.43
2018-04-08T02:55:58.426Z,10.40
2018-04-08T02:58:26.703Z,10.10
2018-04-08T03:00:54.017Z,10.20
2018-04-08T03:03:22.108Z,10.27
2018-04-08T03:05:49.667Z,10.27
2018-04-08T03:08:16.981Z,11.40
2018-04-08T03:10:45.163Z,8.50
2018-04-08T03:13:13.396Z,9.50
2018-04-08T03:15:42.310Z,9.37
2018-04-08T03:18:10.666Z,9.40
2018-04-08T03:20:37.987Z,7.40
2018-04-08T03:23:05.398Z,9.53
2018-04-08T03:25:33.488Z,9.43
2018-04-08T03:28:01.790Z,8.80
2018-04-08T03:30:29.869Z,9.87
2018-04-08T03:32:57.472Z,10.70
2018-04-08T03:35:25.703Z,11.13
2018-04-08T03:37:53.027Z,10.80
2018-04-08T03:40:21.195Z,8.87
2018-04-08T03:42:49.428Z,8.90
2018-04-08T03:45:16.796Z,9.83
2018-04-08T03:47:45.055Z,8.93
2018-04-08T03:50:13.176Z,10.77
2018-04-08T03:52:41.288Z,8.07
2018-04-08T03:55:08.632Z,10.23
2018-04-08T03:57:36.121Z,7.67
2018-04-08T04:00:04.796Z,9.00
2018-04-08T04:02:32.116Z,9.40
2018-04-08T04:04:59.500Z,8.97
2018-04-08T04:07:26.864Z,9.43
2018-04-08T04:09:55.180Z,8.77
2018-04-08T04:12:22.519Z,8.83
2018-04-08T04:14:50.799Z,9.37
2018-04-08T04:17:18.976Z,9.70
2018-04-08T04:19:53.700Z,9.70
2018-04-08T04:22:34.081Z,7.70
2018-04-08T04:25:18.532Z,9.13
2018-04-08T04:27:45.792Z,9.13
2018-04-08T04:30:13.302Z,9.67
2018-04-08T04:32:41.799Z,9.10
2018-04-08T04:35:09.143Z,8.90
2018-04-08T04:37:37.229Z,9.20
2018-04-08T04:40:05.488Z,10.10
2018-04-08T04:42:33.782Z,10.17
2018-04-08T04:45:01.886Z,9.23
2018-04-08T04:47:29.219Z,9.47
2018-04-08T04:49:58.124Z,9.63
2018-04-08T04:52:26.519Z,8.87
2018-04-08T04:54:54.776Z,9.80
2018-04-08T04:57:22.139Z,9.53
2018-04-08T04:59:50.474Z,8.00
2018-04-08T05:02:17.799Z,8.67
2018-04-08T05:04:46.063Z,9.70
2018-04-08T05:07:13.440Z,9.90
2018-04-08T05:09:41.259Z,8.33
2018-04-08T05:12:08.544Z,9.57
2018-04-08T05:14:36.858Z,9.43
2018-04-08T05:17:04.227Z,9.00
2018-04-08T05:19:31.571Z,9.73
2018-04-08T05:21:59.661Z,9.73
2018-04-08T05:24:27.767Z,10.60
2018-04-08T05:26:56.084Z,9.73
2018-04-08T05:29:24.152Z,10.40
2018-04-08T05:31:51.607Z,9.90
2018-04-08T05:34:19.882Z,8.93
2018-04-08T05:36:48.167Z,8.77
2018-04-08T05:39:16.228Z,7.20
2018-04-08T05:41:44.292Z,8.03
2018-04-08T05:44:12.626Z,8.87
2018-04-08T05:46:39.992Z,8.30
2018-04-08T05:49:07.389Z,7.90
2018-04-08T05:51:35.527Z,8.23
2018-04-08T05:54:03.827Z,8.73
2018-04-08T05:56:31.170Z,8.80
2018-04-08T05:58:59.468Z,9.63
2018-04-08T06:01:27.569Z,7.87
2018-04-08T06:03:55.687Z,8.60
2018-04-08T06:06:24.010Z,11.67
2018-04-08T06:08:51.376Z,8.60
2018-04-08T06:11:19.641Z,9.53
2018-04-08T06:13:46.963Z,7.63
2018-04-08T06:16:15.116Z,10.73
2018-04-08T06:18:42.479Z,10.67
2018-04-08T06:21:10.610Z,11.30
2018-04-08T06:23:37.907Z,11.23
2018-04-08T06:26:06.032Z,10.67
2018-04-08T06:28:33.468Z,11.47
2018-04-08T06:31:01.605Z,10.83
2018-04-08T06:33:29.884Z,11.27
2018-04-08T06:35:57.971Z,11.47
2018-04-08T06:38:25.404Z,11.40
2018-04-08T06:40:52.966Z,10.87
2018-04-08T06:43:21.040Z,11.63
2018-04-08T06:45:49.330Z,10.70
2018-04-08T06:48:17.460Z,11.00
2018-04-08T06:50:44.860Z,10.93
2018-04-08T06:53:13.127Z,10.60
2018-04-08T06:55:41.252Z,10.60
2018-04-08T06:58:09.573Z,10.60
2018-04-08T07:00:36.900Z,10.53
2018-04-08T07:03:05.199Z,10.27
2018-04-08T07:05:33.301Z,10.53
2018-04-08T07:08:01.531Z,10.70
2018-04-08T07:10:28.846Z,10.50
2018-04-08T07:12:56.448Z,9.90
2018-04-08T07:15:23.783Z,10.67
2018-04-08T07:17:51.879Z,10.83
2018-04-08T07:20:20.139Z,10.70
2018-04-08T07:22:47.523Z,10.83
2018-04-08T07:25:15.610Z,11.20
2018-04-08T07:27:43.103Z,10.87
2018-04-08T07:30:10.575Z,10.50
2018-04-08T07:32:37.952Z,11.17
2018-04-08T07:35:05.360Z,11.23
2018-04-08T07:37:32.663Z,11.17
2018-04-08T07:40:00.960Z,11.07
2018-04-08T07:42:29.084Z,10.07
2018-04-08T07:44:56.487Z,11.00
2018-04-08T07:47:24.574Z,11.00
2018-04-08T07:49:52.893Z,11.03
2018-04-08T07:52:20.239Z,10.37
2018-04-08T07:54:48.522Z,11.30
2018-04-08T07:57:15.847Z,11.50
2018-04-08T07:59:44.312Z,12.10
2018-04-08T08:02:12.799Z,11.53
2018-04-08T08:04:40.102Z,12.17
2018-04-08T08:07:08.708Z,11.50
2018-04-08T08:09:36.820Z,11.57
2018-04-08T08:12:04.183Z,10.97
2018-04-08T08:14:32.327Z,12.27
2018-04-08T08:17:00.611Z,11.57
2018-04-08T08:19:27.968Z,11.93
2018-04-08T08:21:56.238Z,11.47
2018-04-08T08:24:24.317Z,11.50
2018-04-08T08:26:52.440Z,11.73
2018-04-08T08:29:19.820Z,10.60
2018-04-08T08:31:47.892Z,11.30
2018-04-08T08:34:16.159Z,10.53
2018-04-08T08:36:43.924Z,11.97
2018-04-08T08:39:11.267Z,11.27
2018-04-08T08:41:38.703Z,11.83
2018-04-08T08:44:06.776Z,11.90
2018-04-08T08:46:35.423Z,9.97
2018-04-08T08:49:03.720Z,12.63
2018-04-08T08:51:32.199Z,10.87
2018-04-08T08:53:59.571Z,12.60
2018-04-08T08:56:26.919Z,12.00
2018-04-08T08:58:54.441Z,12.73
2018-04-08T09:01:22.591Z,9.90
2018-04-08T09:03:49.975Z,12.97
2018-04-08T09:06:18.111Z,10.73
2018-04-08T09:08:46.417Z,12.53
2018-04-08T09:11:13.776Z,14.93
2018-04-08T09:13:41.140Z,12.17
2018-04-08T09:16:09.471Z,9.83
2018-04-08T09:18:36.877Z,11.93
2018-04-08T09:21:08.255Z,9.47
2018-04-08T09:23:35.819Z,12.77
2018-04-08T09:26:04.093Z,11.97
2018-04-08T09:28:32.288Z,12.20
2018-04-08T09:31:00.551Z,12.80
2018-04-08T09:33:28.897Z,12.33
2018-04-08T09:35:56.536Z,13.27
2018-04-08T09:38:28.974Z,13.53
2018-04-08T09:40:57.949Z,12.30
2018-04-08T09:43:26.092Z,11.00
2018-04-08T09:45:53.554Z,10.93
2018-04-08T09:48:20.969Z,11.03
2018-04-08T09:50:48.341Z,9.10
2018-04-08T09:53:15.720Z,11.80
2018-04-08T09:55:43.100Z,11.50
2018-04-08T09:58:11.553Z,13.67
2018-04-08T10:03:48.344Z,11.90
2018-04-08T10:06:15.774Z,10.33
2018-04-08T10:08:43.169Z,10.33
2018-04-08T10:11:10.657Z,21.33
2018-04-08T10:13:38.983Z,44.33
2018-04-08T10:16:07.782Z,12.23
2018-04-08T10:18:35.168Z,18.40
2018-04-08T10:21:02.748Z,10.07
2018-04-08T10:23:31.172Z,12.77
2018-04-08T10:25:58.612Z,9.90
2018-04-08T10:28:26.936Z,13.10
2018-04-08T10:30:54.467Z,12.23
2018-04-08T10:33:25.793Z,12.73
2018-04-08T10:35:54.379Z,11.63
2018-04-08T10:38:21.746Z,12.57
2018-04-08T10:40:50.070Z,9.00
2018-04-08T10:43:21.200Z,12.33
2018-04-08T10:45:49.480Z,13.27
2018-04-08T10:48:21.263Z,10.07
2018-04-08T10:50:50.508Z,11.73
2018-04-08T10:53:18.118Z,11.40
2018-04-08T10:55:48.358Z,10.77
2018-04-08T10:58:16.707Z,9.03
2018-04-08T11:00:46.068Z,10.93
2018-04-08T11:03:13.463Z,11.60
2018-04-08T11:05:41.744Z,11.87
2018-04-08T11:08:09.276Z,11.77
2018-04-08T11:10:37.515Z,11.17
2018-04-08T11:13:05.081Z,10.43
2018-04-08T11:15:32.484Z,9.50
2018-04-08T11:18:00.632Z,10.37
2018-04-08T11:20:28.030Z,10.07
2018-04-08T11:22:56.492Z,11.00
2018-04-08T11:25:24.616Z,11.13
2018-04-08T11:27:52.973Z,10.57
2018-04-08T11:30:21.128Z,11.47
2018-04-08T11:32:49.467Z,9.17
2018-04-08T11:35:16.958Z,9.43
2018-04-08T11:37:45.481Z,11.17
2018-04-08T11:40:12.960Z,10.63
2018-04-08T11:42:41.731Z,10.77
2018-04-08T11:45:09.959Z,9.43
2018-04-08T11:47:37.616Z,10.10
2018-04-08T11:50:05.007Z,9.57
2018-04-08T11:52:32.447Z,9.33
2018-04-08T11:55:00.733Z,9.80
2018-04-08T11:57:28.928Z,8.93
2018-04-08T11:59:56.314Z,9.57
2018-04-08T12:02:24.570Z,8.40
2018-04-08T12:04:51.974Z,10.03
2018-04-08T12:07:20.709Z,10.40
2018-04-08T12:09:48.183Z,10.83
2018-04-08T12:12:15.569Z,8.77
2018-04-08T12:14:42.965Z,6.53
2018-04-08T12:17:10.391Z,6.43
2018-04-08T12:19:38.783Z,8.00
2018-04-08T12:22:07.184Z,10.10
2018-04-08T12:24:35.329Z,9.20
2018-04-08T12:27:06.460Z,9.63
2018-04-08T12:29:33.980Z,5.50
2018-04-08T12:32:01.326Z,7.53
2018-04-08T12:34:28.707Z,10.23
2018-04-08T12:36:56.585Z,9.40
2018-04-08T12:39:23.969Z,7.03
2018-04-08T12:41:51.341Z,9.83
2018-04-08T12:44:18.777Z,6.37
2018-04-08T12:46:46.232Z,9.00
2018-04-08T12:49:13.689Z,9.07
2018-04-08T12:51:41.469Z,8.80
2018-04-08T12:54:08.986Z,8.50
2018-04-08T12:56:36.372Z,9.03
2018-04-08T12:59:03.804Z,8.33
2018-04-08T13:01:31.924Z,8.83
2018-04-08T13:04:00.422Z,7.07
2018-04-08T13:06:28.888Z,8.10
2018-04-08T13:08:56.347Z,8.17
2018-04-08T13:11:24.753Z,6.93
2018-04-08T13:13:53.040Z,5.23
2018-04-08T13:16:21.800Z,7.50
2018-04-08T13:18:49.168Z,7.73
2018-04-08T13:21:16.637Z,8.27
2018-04-08T13:23:43.983Z,7.40
2018-04-08T13:26:11.486Z,6.40
2018-04-08T13:28:45.827Z,7.57
2018-04-08T13:31:13.200Z,5.77
2018-04-08T13:33:41.512Z,5.90
2018-04-08T13:36:08.912Z,5.47
2018-04-08T13:38:37.226Z,7.63
2018-04-08T13:41:04.678Z,8.10
2018-04-08T13:43:34.723Z,7.87
2018-04-08T13:46:02.039Z,5.80
2018-04-08T13:48:30.127Z,7.53
2018-04-08T13:50:58.408Z,6.33
2018-04-08T13:53:26.764Z,7.70
2018-04-08T13:55:54.887Z,6.13
2018-04-08T13:58:23.673Z,5.93
2018-04-08T14:00:51.920Z,6.90
2018-04-08T14:03:20.238Z,6.80
2018-04-08T14:05:47.646Z,5.80
2018-04-08T14:08:15.768Z,5.50
2018-04-08T14:10:43.647Z,5.83
2018-04-08T14:13:11.926Z,5.70
2018-04-08T14:15:40.287Z,4.43
2018-04-08T14:18:08.280Z,6.37
2018-04-08T14:20:35.699Z,5.50
2018-04-08T14:23:03.803Z,5.93
2018-04-08T14:25:31.365Z,5.87
2018-04-08T14:27:59.607Z,6.60
2018-04-08T14:30:26.960Z,6.07
2018-04-08T14:32:54.351Z,6.10
2018-04-08T14:35:22.639Z,5.53
2018-04-08T14:37:50.035Z,6.43
2018-04-08T14:40:17.396Z,5.67
2018-04-08T14:42:45.527Z,5.20
2018-04-08T14:45:13.627Z,4.23
2018-04-08T14:47:41.012Z,4.63
2018-04-08T14:50:08.363Z,4.17
2018-04-08T14:52:35.704Z,3.27
2018-04-08T14:55:03.869Z,4.10
2018-04-08T14:57:31.971Z,3.80
2018-04-08T14:59:59.433Z,3.90
2018-04-08T15:02:26.803Z,4.03
2018-04-08T15:04:54.167Z,3.07
2018-04-08T15:07:22.296Z,4.07
2018-04-08T15:09:49.692Z,3.77
2018-04-08T15:12:17.165Z,3.23
2018-04-08T15:14:44.574Z,3.43
2018-04-08T15:17:11.916Z,3.43
2018-04-08T15:19:39.436Z,3.50
2018-04-08T15:22:06.876Z,3.47
2018-04-08T15:24:35.082Z,8.03
2018-04-08T15:27:02.463Z,3.23
2018-04-08T15:29:29.893Z,3.27
2018-04-08T15:31:57.411Z,3.13
2018-04-08T15:34:25.543Z,3.50
2018-04-08T15:36:53.795Z,3.00
2018-04-08T15:39:21.163Z,3.10
2018-04-08T15:41:48.572Z,3.37
2018-04-08T15:44:19.057Z,3.27
2018-04-08T15:46:46.481Z,3.40
2018-04-08T15:49:13.840Z,3.27
2018-04-08T15:51:41.324Z,3.67
2018-04-08T15:54:08.703Z,3.50
2018-04-08T15:56:36.920Z,4.13
2018-04-08T15:59:05.460Z,3.30
2018-04-08T16:01:34.597Z,3.53
2018-04-08T16:04:02.045Z,3.73
2018-04-08T16:06:30.967Z,12.30
2018-04-08T16:08:59.285Z,8.67
2018-04-08T16:11:26.637Z,3.83
2018-04-08T16:13:55.016Z,3.87
2018-04-08T16:16:22.429Z,3.60
2018-04-08T16:18:51.308Z,4.67
2018-04-08T16:21:19.594Z,3.93
2018-04-08T16:23:46.975Z,3.93
2018-04-08T16:26:15.264Z,3.83
2018-04-08T16:28:42.669Z,4.80
2018-04-08T16:31:10.940Z,4.50
2018-04-08T16:33:38.354Z,5.73
2018-04-08T16:36:05.770Z,4.83
2018-04-08T16:38:35.548Z,5.00
2018-04-08T16:41:05.556Z,5.13
2018-04-08T16:43:34.036Z,4.40
2018-04-08T16:46:02.408Z,4.40
2018-04-08T16:48:32.173Z,4.80
2018-04-08T16:51:00.175Z,4.90
2018-04-08T16:53:28.361Z,4.70
2018-04-08T16:55:56.031Z,5.63
2018-04-08T16:58:24.216Z,6.00
2018-04-08T17:00:52.547Z,5.53
2018-04-08T17:03:19.935Z,5.27
2018-04-08T17:05:48.098Z,5.73
2018-04-08T17:08:17.334Z,5.53
2018-04-08T17:10:44.746Z,5.07
2018-04-08T17:13:12.112Z,5.90
2018-04-08T17:15:40.446Z,5.87
2018-04-08T17:18:07.853Z,6.60
2018-04-08T17:20:36.120Z,5.70
2018-04-08T17:23:04.285Z,6.30
2018-04-08T17:25:34.230Z,6.70
2018-04-08T17:28:02.822Z,6.47
2018-04-08T17:30:30.207Z,5.80
2018-04-08T17:32:57.626Z,6.60
2018-04-08T17:35:25.016Z,7.57
2018-04-08T17:37:52.521Z,7.43
2018-04-08T17:40:20.524Z,5.80
2018-04-08T17:42:48.680Z,6.30
2018-04-08T17:45:19.240Z,6.40
2018-04-08T17:47:48.065Z,5.57
2018-04-08T17:50:15.505Z,8.03
2018-04-08T17:52:43.830Z,6.43
2018-04-08T17:55:12.267Z,8.30
2018-04-08T17:57:40.561Z,6.97
2018-04-08T18:00:07.963Z,6.53
2018-04-08T18:02:36.100Z,6.97
2018-04-08T18:05:04.652Z,6.90
2018-04-08T18:07:32.020Z,7.13
2018-04-08T18:09:59.377Z,6.97
2018-04-08T18:12:27.628Z,7.20
2018-04-08T18:14:55.037Z,6.37
2018-04-08T18:17:23.124Z,6.80
2018-04-08T18:19:51.333Z,6.80
2018-04-08T18:22:19.619Z,6.77
2018-04-08T18:24:46.980Z,5.77
2018-04-08T18:27:14.811Z,6.27
2018-04-08T18:29:43.081Z,7.00
2018-04-08T18:32:10.496Z,7.10
2018-04-08T18:34:38.814Z,6.47
2018-04-08T18:37:06.179Z,7.03
2018-04-08T18:39:35.105Z,7.07
2018-04-08T18:42:03.439Z,7.87
2018-04-08T18:44:30.826Z,7.20
2018-04-08T18:46:58.196Z,7.80
2018-04-08T18:49:26.320Z,7.87
2018-04-08T18:51:55.097Z,7.43
2018-04-08T18:54:23.217Z,6.90
2018-04-08T18:56:52.924Z,7.80
2018-04-08T18:59:21.056Z,8.43
2018-04-08T19:01:48.435Z,7.43
2018-04-08T19:04:16.569Z,7.87
2018-04-08T19:06:43.908Z,7.20
2018-04-08T19:09:12.227Z,6.90
2018-04-08T19:11:39.600Z,6.83
2018-04-08T19:14:07.916Z,7.57
2018-04-08T19:16:36.641Z,7.90
2018-04-08T19:19:05.860Z,6.83
2018-04-08T19:21:34.210Z,7.50
2018-04-08T19:24:01.578Z,6.60
2018-04-08T19:26:28.957Z,7.10
2018-04-08T19:28:57.236Z,6.77
2018-04-08T19:31:25.580Z,6.97
2018-04-08T19:33:52.933Z,6.80
2018-04-08T19:36:20.472Z,6.90
2018-04-08T19:38:47.818Z,7.13
2018-04-08T19:41:15.980Z,8.17
2018-04-08T19:43:45.080Z,6.93
2018-04-08T19:46:12.584Z,6.57
2018-04-08T19:48:40.847Z,7.30
2018-04-08T19:51:10.235Z,6.43
2018-04-08T19:53:38.684Z,7.80
2018-04-08T19:56:11.335Z,7.60
2018-04-08T19:58:39.693Z,7.00
2018-04-08T20:01:07.212Z,7.50
2018-04-08T20:03:35.627Z,7.73
2018-04-08T20:06:04.300Z,6.77
2018-04-08T20:08:32.925Z,7.57
2018-04-08T20:11:01.522Z,8.50
2018-04-08T20:13:29.664Z,7.77
2018-04-08T20:15:57.074Z,7.83
2018-04-08T20:18:25.229Z,7.60
2018-04-08T20:20:53.533Z,7.80
2018-04-08T20:23:20.998Z,7.90
2018-04-08T20:25:49.101Z,8.27
2018-04-08T20:28:17.408Z,9.03
2018-04-08T20:30:45.529Z,8.10
2018-04-08T20:33:13.013Z,8.43
2018-04-08T20:35:41.337Z,7.93
2018-04-08T20:38:08.901Z,8.30
2018-04-08T20:40:37.088Z,8.73
2018-04-08T20:43:04.497Z,9.33
2018-04-08T20:45:32.776Z,9.63
2018-04-08T20:48:00.868Z,9.10
2018-04-08T20:50:29.020Z,9.70
2018-04-08T20:52:57.204Z,9.23
2018-04-08T20:55:25.306Z,9.03
2018-04-08T20:57:52.708Z,9.50
2018-04-08T21:00:20.836Z,8.40
2018-04-08T21:02:48.240Z,11.47
2018-04-08T21:05:15.617Z,9.53
2018-04-08T21:07:43.066Z,9.10
2018-04-08T21:10:11.199Z,10.27
2018-04-08T21:12:38.592Z,9.33
2018-04-08T21:15:06.750Z,9.53
2018-04-08T21:17:34.180Z,9.43
2018-04-08T21:20:01.555Z,9.30
2018-04-08T21:22:28.943Z,9.07
2018-04-08T21:24:56.442Z,9.27
2018-04-08T21:27:24.833Z,9.67
2018-04-08T21:29:53.195Z,9.03
2018-04-08T21:32:20.514Z,9.00
2018-04-08T21:34:47.885Z,9.67
2018-04-08T21:37:15.236Z,7.87
2018-04-08T21:39:42.618Z,10.07
2018-04-08T21:42:10.708Z,9.93
2018-04-08T21:44:38.155Z,11.43
2018-04-08T21:47:06.472Z,8.73
2018-04-08T21:49:33.862Z,8.67
2018-04-08T21:52:01.993Z,9.43
2018-04-08T21:54:30.411Z,8.60
2018-04-08T21:57:05.038Z,9.90
2018-04-08T21:59:39.261Z,9.67
2018-04-08T22:02:07.591Z,9.13
2018-04-08T22:04:35.729Z,9.33
2018-04-08T22:07:03.940Z,9.30
2018-04-08T22:09:32.255Z,9.70
2018-04-08T22:11:59.682Z,8.70
2018-04-08T22:14:27.080Z,7.70
2018-04-08T22:16:54.656Z,9.37
2018-04-08T22:19:24.872Z,9.33
2018-04-08T22:21:52.265Z,10.20
2018-04-08T22:24:19.699Z,9.30
2018-04-08T22:26:47.054Z,9.10
2018-04-08T22:29:15.178Z,9.23
2018-04-08T22:31:43.286Z,9.83
2018-04-08T22:34:10.677Z,9.00
2018-04-08T22:36:38.752Z,9.63
2018-04-08T22:39:06.951Z,8.40
2018-04-08T22:41:35.233Z,9.57
2018-04-08T22:44:03.353Z,8.87
2018-04-08T22:46:30.774Z,9.20
2018-04-08T22:48:58.148Z,8.87
2018-04-08T22:51:27.246Z,8.97
2018-04-08T22:53:54.629Z,7.83
2018-04-08T22:56:22.893Z,7.63
2018-04-08T22:58:51.176Z,9.17
2018-04-08T23:01:19.468Z,8.67
2018-04-08T23:03:46.812Z,9.13
2018-04-08T23:06:14.168Z,8.43
2018-04-08T23:08:42.264Z,6.50
2018-04-08T23:11:10.538Z,9.73
2018-04-08T23:13:37.851Z,8.80
2018-04-08T23:16:05.988Z,8.83
2018-04-08T23:18:33.335Z,8.63
2018-04-08T23:21:01.438Z,8.43
2018-04-08T23:23:28.815Z,8.83
2018-04-08T23:25:56.907Z,8.90
2018-04-08T23:28:24.989Z,9.77
2018-04-08T23:30:53.286Z,8.90
2018-04-08T23:33:20.660Z,8.53
2018-04-08T23:35:48.978Z,8.03
2018-04-08T23:38:17.262Z,8.10
2018-04-08T23:40:45.514Z,6.60
2018-04-08T23:43:13.811Z,8.33
2018-04-08T23:45:41.928Z,8.47
2018-04-08T23:48:09.344Z,8.10
2018-04-08T23:50:36.664Z,9.93
2018-04-08T23:53:04.965Z,8.73
2018-04-08T23:55:33.036Z,8.30
2018-04-08T23:58:01.202Z,9.07
